aviador You're here:

OIII Decoded Metar

TEHERAN in IRAN
Report Time2018-07-21 08:00:00
UTC Time2018-07-21 08:12:37
Flight Rules vfr VFR
Wind130° at 12 kt
W.Decomp.*RWY 11: 11.5 kt HW 3.5 kt RCW
W.Rank130° ranks 14
Current wind is above 130° avg. (6.9)
Visibility9999 m
Phenomena:N/A
Clouds:N/A
Expected CloudBase > 16,000 ft AGL from Temp-Dew spread
CeilingNone
Temp38°C (ISA +31)
Dew Point-2°C (8% RH)
Heat Index34.9°C
AAT31.4°C
QNH1009 hPa
Density Alt7,539 ft
Elevation3,907 ft
Report Wrong Elevation
Raw Report
METAR OIII 210800Z 13012KT CAVOK 38/M02 Q1009 A2981 NOSIG=

Extra information for OIII:More info

Metar Taf Metar & Taf Last 4 Metars F.Rules Stats Wind Profile Meteogram Temp Stats Airport Information Weather charts Add Link Nearby VenuesMetar ALERT Operation Metar Decoded Social comments